Historyczne dane pomiarowe

Dodano dane terminowe – wersja testowa.

Dane z okresu 1951-2019

Wersja bazy: 1.34 [2019-03-16, lista zmian], aktualizacja planowana na 2019-04-15

Dane meteo z obszaru Polski uzyskane na podstawie danych udostępnionych przez Instytut Meteorologii i Gospodarki Wodnej – Państwowy Instytut Badawczy.

 

Wybierz Datę:    

       

TemperaturaWilgotnośćWiatrCiśnienieOpadyŚniegCzas trwania zjawisk
 Stacja t tx tn tng RH VA  wxwx mslp ppp RRR   cm mm wxwxwxwxwxwxwx
1994-08-14 17.1 20.9 14.1- 54.5- 2.0 3.7---- 0.0------------
1994-08-13 17.8 23.0 15.4- 78.5- 6.3 4.3---- 0.5------------
1994-08-12 18.1 21.1 15.3- 90.0- 8.0 1.0---- 4.7------------
1994-08-11 20.3 24.0 16.9- 84.3- 6.3 0.0---- 23.5------------
1994-08-10 20.8 28.7 13.6- 70.0- 3.0 0.3---- 7.6------------
1994-08-09 19.8 24.4 18.6- 92.3- 5.3 0.3---- 4.3------------
1994-08-08 22.5 27.2 19.6- 81.5- 6.7 0.3---- 4.7------------
1994-08-07 24.5 32.0 19.6- 64.0- 4.3 2.7---- 27.2------------
1994-08-06 24.9 35.0 17.3- 58.0- 3.7 2.0---- 1.3------------
1994-08-05 26.0 32.5 16.8- 57.3- 0.7 1.3---- 0.0------------
1994-08-04 24.7 30.2 18.3- 60.8- 1.0 2.7---- 0.0------------
1994-08-03 25.5 31.0 20.1- 66.8- 4.0 0.7---- 0.0------------
1994-08-02 27.7 33.7 23.4- 50.3- 3.3 0.7---- 0.0------------
1994-08-01 28.9 37.0 19.6- 48.8- 0.7 0.7---- 0.0------------
1994-07-31 26.6 35.7 17.8- 48.8- 0.0 0.0---- 0.0------------
1994-07-30 25.6 36.0 15.8- 48.0- 0.7 0.3---- 0.0------------
1994-07-29 26.9 34.4 16.2- 47.3- 0.0 0.3---- 0.0------------
1994-07-28 25.0 34.2 14.6- 47.8- 1.0 0.3---- 0.0------------
1994-07-27 26.0 34.2 16.4- 52.3- 3.3 0.7---- 0.0------------
1994-07-26 26.1 34.3 16.0- 53.0- 2.7 0.7---- 0.0------------
1994-07-25 25.7 33.2 15.6- 47.3- 0.7 0.0---- 0.0------------
1994-07-24 24.6 31.5 14.1- 50.5- 1.7 2.3---- 0.0------------
1994-07-23 22.6 29.5 12.3- 52.3- 0.7 0.3---- 0.0------------
1994-07-22 23.5 30.5 11.9- 53.3- 0.7 1.0---- 0.0------------
1994-07-21 22.2 27.6 10.6- 50.3- 1.0 0.3---- 0.0------------
1994-07-20 21.4 25.0 14.6- 46.8- 1.3 3.0---- 0.0------------
1994-07-19 21.1 25.0 15.9- 65.8- 4.7 1.3---- 0.0------------
1994-07-18 22.1 27.7 17.1- 72.0- 2.0 1.0---- 0.0------------
1994-07-17 22.6 28.9 17.0- 71.0- 4.7 1.7---- 0.5------------
1994-07-16 23.2 31.0 17.1- 72.0- 2.7 0.7---- 0.1------------
1994-07-15 23.6 29.0 15.1- 57.5- 1.7 2.0---- 0.0------------
1994-07-14 24.2 30.2 15.6- 57.0- 3.3 1.7---- 0.1------------
1994-07-13 23.2 28.2 14.6- 51.3- 4.3 4.3---- 0.0------------
1994-07-12 21.3 26.5 15.6- 66.8- 4.0 3.3---- 0.0------------
1994-07-11 20.7 26.5 14.2- 68.3- 4.3 1.3---- 0.0------------
1994-07-10 16.9 22.5 13.6- 75.5- 5.0 3.0---- 0.0------------
1994-07-09 16.7 21.0 13.8- 82.0- 8.0 3.7---- 7.7------------
1994-07-08 18.2 22.0 13.6- 64.0- 5.0 4.3---- 0.5------------
1994-07-07 19.5 26.8 13.3- 76.8- 6.0 1.7---- 2.7------------
1994-07-06 21.5 27.2 13.6- 59.0- 0.0 0.3---- 0.0------------
1994-07-05 22.3 28.0 16.3- 62.0- 7.7 1.7---- 0.0------------
1994-07-04 24.1 31.8 13.4- 50.5- 0.3 1.3---- 0.0------------
1994-07-03 22.1 28.2 12.3- 48.3- 0.0 1.0---- 0.0------------
1994-07-02 21.0 26.8 11.4- 52.5- 0.0 2.0---- 0.0------------
1994-07-01 20.2 25.0 14.2- 65.8- 0.0 1.0---- 0.0------------
1994-06-30 21.8 29.8 19.4- 77.3- 7.7 2.3---- 0.0------------
1994-06-29 26.1 32.5 18.6- 68.0- 4.0 0.7---- 0.0------------
1994-06-28 26.0 32.5 21.2- 65.8- 4.7 1.3---- 0.0------------
1994-06-27 27.4 34.0 18.6- 61.8- 0.0 0.7---- 0.0------------
1994-06-26 22.6 31.0 11.6- 54.5- 2.0 0.7---- 0.0------------
1994-06-25 17.6 26.0 6.2- 54.5- 0.0 1.3---- 0.0------------
1994-06-24 17.0 22.5 9.6- 48.5- 0.3 2.3---- 0.0------------
1994-06-23 20.1 24.6 17.6- 53.8- 0.7 5.7---- 0.0------------
1994-06-22 19.9 27.4 11.0- 55.5- 3.0 2.0---- 0.0------------
1994-06-21 17.7 22.7 9.6- 58.8- 0.0 2.0---- 0.0------------
1994-06-20 19.4 25.8 13.6- 64.5- 1.7 2.3---- 0.0------------
1994-06-19 18.7 26.0 12.6- 64.5- 4.0 2.3---- 0.0------------
1994-06-18 15.8 20.5 6.1- 68.3- 8.0 2.7---- 1.3------------
1994-06-17 12.1 16.1 8.7- 70.3- 6.7 2.0---- 0.0------------
1994-06-16 14.1 17.0 7.8- 64.5- 8.0 2.3---- 2.3------------
353.0 ms

 

Źródłem pochodzenia danych jest Instytut Meteorologii i Gospodarki Wodnej – Państwowy Instytut Badawczy. Dane Instytutu Meteorologii i Gospodarki Wodnej – Państwowego Instytutu Badawczego zostały przetworzone.

Dane źródłowe można odnaleźć na stronie https://dane.imgw.pl